Alsace — PB4786 — position and weather

sailwx.info

Track history (hours):
 
Tides and Currents Weather Stations Pressure Air Temp Water Temp Dewpoint Dewpoint Depression Visibility Wind Speed Wind Dir Waves Ship Positions

Alsace

Last reported at 2018-Feb-19 02:30 UTC. Time now 2018-Feb-19 02:31 UTC.
Position N 51°49' E 004°45'.

Length 178 m; draft 2 m.

Type: Ship. MMSI: 244660556.

Date/timePositionNaut miles runAvg speedWind from/ knotsBaromVisibWave heightAir tempDewpointWater temp
2018-Feb-19 02:30N 51°49' E 004°45'4 8.8
2018-Feb-19 02:00N 51°49' E 004°53'13 9.2
2018-Feb-19 00:39N 51°49' E 005°13'110.0
2018-Feb-19 00:30N 51°49' E 005°15'4 8.7
2018-Feb-18 23:59N 51°49' E 005°22'11 9.0
2018-Feb-18 22:46N 51°54' E 005°38'15 8.5
2018-Feb-18 21:00N 51°52' E 006°02'21 9.3
2018-Feb-18 18:44N 51°40' E 006°29'310.6
2018-Feb-18 18:30N 51°39' E 006°33'4 7.5
2018-Feb-18 18:00N 51°36' E 006°36'4 7.5
2018-Feb-18 17:30N 51°34' E 006°41'5 9.2
2018-Feb-18 17:00N 51°30' E 006°43'3 6.6
2018-Feb-18 16:30N 51°27' E 006°43'12 7.7
2018-Feb-18 15:00N 51°15' E 006°44'3 5.5
2018-Feb-18 14:30N 51°13' E 006°44'17 7.8
2018-Feb-18 12:18N 50°59' E 006°60'3 9.6
2018-Feb-18 11:57N 50°55' E 006°58'4 9.1
2018-Feb-18 11:30N 50°53' E 007°03'92 7.3
2018-Feb-17 22:58N 49°37' E 008°24'4 9.2
2018-Feb-17 22:30N 49°33' E 008°25'5 9.7
2018-Feb-17 22:00N 49°28' E 008°28'3 5.8
2018-Feb-17 21:30N 49°26' E 008°30'113 4.7
2018-Feb-16 21:17N 47°40' E 007°31'1 1.3
2018-Feb-16 20:53N 47°39' E 007°32'0 0.6
2018-Feb-16 20:30N 47°39' E 007°32'3 6.3
2018-Feb-16 20:00N 47°37' E 007°35'2 0.9
2018-Feb-16 18:18N 47°35' E 007°35'2 2.7
2018-Feb-16 17:38N 47°33' E 007°37'1 4.9
2018-Feb-16 17:27N 47°34' E 007°38'0 0.3
2018-Feb-16 17:00N 47°34' E 007°38'0 0.0
2018-Feb-16 16:30N 47°34' E 007°38'1 1.3
2018-Feb-16 16:00N 47°33' E 007°39'0 0.0
2018-Feb-16 15:30N 47°33' E 007°39'0 0.0
2018-Feb-16 15:00N 47°33' E 007°39'0 0.0
2018-Feb-16 14:30N 47°33' E 007°39'0 0.0
2018-Feb-16 14:00N 47°33' E 007°39'0 0.0
2018-Feb-16 13:30N 47°33' E 007°39'0 0.8
2018-Feb-16 13:00N 47°33' E 007°39'1 1.1
2018-Feb-16 12:30N 47°32' E 007°40'0 0.0
2018-Feb-16 12:00N 47°32' E 007°40'0 0.0
2018-Feb-16 11:30N 47°32' E 007°40'0 0.0
2018-Feb-16 11:00N 47°32' E 007°40'0 0.0
2018-Feb-16 10:30N 47°32' E 007°40'0 0.0
2018-Feb-16 09:59N 47°32' E 007°40'0 0.0
2018-Feb-16 09:31N 47°32' E 007°40'2 3.3
2018-Feb-16 08:59N 47°34' E 007°38'1 1.5
2018-Feb-16 08:30N 47°33' E 007°37'2 2.1
2018-Feb-16 07:31N 47°35' E 007°35'0 0.7
2018-Feb-16 07:04N 47°35' E 007°35'0 0.0
2018-Feb-16 07:00N 47°35' E 007°35'0 0.0
2018-Feb-16 06:30N 47°35' E 007°35'0 0.0
2018-Feb-16 05:59N 47°35' E 007°35'0 0.0
2018-Feb-16 05:27N 47°35' E 007°35'0 0.0
2018-Feb-16 05:00N 47°35' E 007°35'0 0.0
2018-Feb-16 04:30N 47°35' E 007°35'0 0.0
2018-Feb-16 04:00N 47°35' E 007°35'0 0.0
2018-Feb-16 03:30N 47°35' E 007°35'0 0.0
2018-Feb-16 03:00N 47°35' E 007°35'0 0.9
2018-Feb-16 02:30N 47°35' E 007°35'1 2.0
2018-Feb-16 02:00N 47°36' E 007°35'107 2.4
2018-Feb-14 05:10N 49°18' E 008°29'1 4.4
2018-Feb-14 04:54N 49°19' E 008°28'4 4.2
2018-Feb-14 04:02N 49°22' E 008°30'0 5.4
2018-Feb-14 03:59N 49°22' E 008°30'3 5.6
2018-Feb-14 03:30N 49°25' E 008°30'2 3.9
2018-Feb-14 03:00N 49°27' E 008°28'2 3.2
2018-Feb-14 02:31N 49°28' E 008°28'2 3.2
2018-Feb-14 02:00N 49°29' E 008°27'0 0.0
2018-Feb-14 01:30N 49°29' E 008°27'0 0.0
2018-Feb-14 01:01N 49°29' E 008°27'0 0.0
2018-Feb-14 00:30N 49°29' E 008°27'0 0.0
2018-Feb-14 00:00N 49°29' E 008°27'0 0.0
2018-Feb-13 23:30N 49°29' E 008°27'0 0.0
2018-Feb-13 23:00N 49°29' E 008°27'0 0.0
2018-Feb-13 22:31N 49°29' E 008°27'0 0.0
2018-Feb-13 22:01N 49°29' E 008°27'0 0.0
2018-Feb-13 21:31N 49°29' E 008°27'0 0.0
2018-Feb-13 21:01N 49°29' E 008°27'0 0.0
2018-Feb-13 20:30N 49°29' E 008°27'0 0.0
2018-Feb-13 20:00N 49°29' E 008°27'0 0.0
2018-Feb-13 19:30N 49°29' E 008°27'0 0.0
2018-Feb-13 19:01N 49°29' E 008°27'0 0.0
2018-Feb-13 18:30N 49°29' E 008°27'0 0.0
2018-Feb-13 18:00N 49°29' E 008°27'0 0.0
2018-Feb-13 17:30N 49°29' E 008°27'0 0.0
2018-Feb-13 17:01N 49°29' E 008°27'0 0.0
2018-Feb-13 16:31N 49°29' E 008°27'0 0.0
2018-Feb-13 16:00N 49°29' E 008°27'0 0.0
2018-Feb-13 15:30N 49°29' E 008°27'0 0.0
2018-Feb-13 15:00N 49°29' E 008°27'0 0.0
2018-Feb-13 14:31N 49°29' E 008°27'0 0.0
2018-Feb-13 14:00N 49°29' E 008°27'0 0.0
2018-Feb-13 13:30N 49°29' E 008°27'0 0.0
2018-Feb-13 13:00N 49°29' E 008°27'0 0.0
2018-Feb-13 12:30N 49°29' E 008°27'0 0.0
2018-Feb-13 12:00N 49°29' E 008°27'0 0.0
2018-Feb-13 11:30N 49°29' E 008°27'0 0.0
2018-Feb-13 11:00N 49°29' E 008°27'0 0.0
2018-Feb-13 10:30N 49°29' E 008°27'0 0.0
2018-Feb-13 10:00N 49°29' E 008°27'1 1.1
2018-Feb-13 09:30N 49°30' E 008°26'3 6.0
2018-Feb-13 09:00N 49°33' E 008°25'83 3.9
2018-Feb-12 11:55N 50°41' E 007°11'3 5.0
2018-Feb-12 11:19N 50°43' E 007°08'2 5.0
2018-Feb-12 11:00N 50°44' E 007°07'6 4.8
2018-Feb-12 09:48N 50°49' E 007°01'2 5.0
2018-Feb-12 09:27N 50°50' E 006°59'4 4.5
2018-Feb-12 08:36N 50°53' E 007°03'1 3.7
2018-Feb-12 08:17N 50°54' E 007°02'2 4.9
2018-Feb-12 07:56N 50°54' E 006°59'2 5.3
2018-Feb-12 07:30N 50°56' E 006°58'14 3.6
2018-Feb-12 03:33N 51°09' E 006°48'1 4.8
2018-Feb-12 03:14N 51°10' E 006°48'1 4.7
2018-Feb-12 03:00N 51°11' E 006°47'2 3.8
2018-Feb-12 02:30N 51°12' E 006°44'2 3.2
2018-Feb-12 02:00N 51°14' E 006°45'8 3.2
2018-Feb-11 23:39N 51°21' E 006°40'1 4.6
2018-Feb-11 23:30N 51°21' E 006°39'2 3.9
2018-Feb-11 23:00N 51°22' E 006°42'2 4.8
2018-Feb-11 22:30N 51°24' E 006°45'2 5.0
2018-Feb-11 22:00N 51°26' E 006°43'2 4.0
2018-Feb-11 21:30N 51°28' E 006°42'1 2.9
2018-Feb-11 21:01N 51°30' E 006°42'2 3.3
2018-Feb-11 20:31N 51°31' E 006°42'2 4.0
2018-Feb-11 20:00N 51°33' E 006°41'2 3.2
2018-Feb-11 19:19N 51°34' E 006°38'2 3.9
2018-Feb-11 18:51N 51°35' E 006°36'2 5.6
2018-Feb-11 18:30N 51°37' E 006°35'2 4.2
2018-Feb-11 18:00N 51°39' E 006°35'3 5.3
2018-Feb-11 17:29N 51°40' E 006°31'17 4.9
2018-Feb-11 14:04N 51°50' E 006°10'0 6.1
2018-Feb-11 14:00N 51°51' E 006°09'3 5.8
2018-Feb-11 13:30N 51°51' E 006°05'26 5.2
2018-Feb-11 08:28N 51°49' E 005°22'4 5.4
2018-Feb-11 07:48N 51°49' E 005°17'2 6.3
2018-Feb-11 07:30N 51°49' E 005°14'3 6.3
2018-Feb-11 07:00N 51°49' E 005°08'3 6.2
2018-Feb-11 06:30N 51°49' E 005°04'3 6.7
2018-Feb-11 06:00N 51°49' E 004°58'4 7.0
2018-Feb-11 05:30N 51°49' E 004°52'4 7.3
2018-Feb-11 05:00N 51°49' E 004°47'4 7.5
2018-Feb-11 04:31N 51°49' E 004°41'3 5.9
2018-Feb-11 04:00N 51°48' E 004°36'4 7.2
2018-Feb-11 03:30N 51°50' E 004°31'4 8.0
2018-Feb-11 03:00N 51°51' E 004°24'4 7.9
2018-Feb-11 02:30N 51°52' E 004°18'4 7.3
2018-Feb-11 02:00N 51°54' E 004°13'4 7.9
2018-Feb-11 01:30N 51°56' E 004°08'2 4.6
2018-Feb-11 01:00N 51°57' E 004°05'0 0.0
2018-Feb-11 00:30N 51°57' E 004°05'1 1.5
2018-Feb-11 00:00N 51°58' E 004°04'0 0.0
2018-Feb-10 23:30N 51°58' E 004°04'1 2.7
2018-Feb-10 23:00N 51°57' E 004°03'0 0.0
2018-Feb-10 22:30N 51°57' E 004°03'0 0.0
2018-Feb-10 22:00N 51°57' E 004°03'0 0.0
2018-Feb-10 21:30N 51°57' E 004°03'0 0.0
2018-Feb-10 21:00N 51°57' E 004°03'0 0.0
2018-Feb-10 20:30N 51°57' E 004°03'0 0.0
2018-Feb-10 20:00N 51°57' E 004°03'0 0.0
2018-Feb-10 19:28N 51°57' E 004°03'0 0.0
2018-Feb-10 19:00N 51°57' E 004°03'0 0.0
2018-Feb-10 18:29N 51°57' E 004°03'0 0.0
2018-Feb-10 18:00N 51°57' E 004°03'0 0.0
2018-Feb-10 17:30N 51°57' E 004°03'0 0.0
2018-Feb-10 17:00N 51°57' E 004°03'0 0.0
2018-Feb-10 16:30N 51°57' E 004°03'0 0.0
2018-Feb-10 16:00N 51°57' E 004°03'0 0.5
2018-Feb-10 15:30N 51°57' E 004°03'1 2.0
2018-Feb-10 15:00N 51°57' E 004°05'0 0.0
2018-Feb-10 14:30N 51°57' E 004°05'0 0.0
2018-Feb-10 14:00N 51°57' E 004°05'0 0.0
2018-Feb-10 13:30N 51°57' E 004°05'0 0.1
2018-Feb-10 13:00N 51°57' E 004°05'1 1.9
2018-Feb-10 12:30N 51°57' E 004°03'0 0.4
2018-Feb-10 12:00N 51°57' E 004°03'0 0.0
2018-Feb-10 11:30N 51°57' E 004°03'0 0.0
2018-Feb-10 11:00N 51°57' E 004°03'0 0.0
2018-Feb-10 10:30N 51°57' E 004°03'0 0.0
2018-Feb-10 10:00N 51°57' E 004°03'1 2.7
2018-Feb-10 09:30N 51°58' E 004°04'1 1.1
2018-Feb-10 09:00N 51°58' E 004°03'0 0.0
2018-Feb-10 08:30N 51°58' E 004°03'0 0.0
2018-Feb-10 08:00N 51°58' E 004°03'0 0.0
2018-Feb-10 07:30N 51°58' E 004°03'0 0.0
2018-Feb-10 07:00N 51°58' E 004°03'0 0.0
2018-Feb-10 06:30N 51°58' E 004°03'0 0.0
2018-Feb-10 06:00N 51°58' E 004°03'0 0.0
2018-Feb-10 05:30N 51°58' E 004°03'0 0.0
2018-Feb-10 05:00N 51°58' E 004°03'0 0.0
2018-Feb-10 04:30N 51°58' E 004°03'0 0.0
2018-Feb-10 04:00N 51°58' E 004°03'0 0.0
2018-Feb-10 03:30N 51°58' E 004°03'0 0.0
2018-Feb-10 03:00N 51°58' E 004°03'0 0.0
2018-Feb-10 02:30N 51°58' E 004°03'0 0.0
2018-Feb-10 02:00N 51°58' E 004°03'0 0.0
2018-Feb-10 01:30N 51°58' E 004°03'0 0.0
2018-Feb-10 01:00N 51°58' E 004°03'0 0.0
2018-Feb-10 00:30N 51°58' E 004°03'0 0.0
2018-Feb-09 23:59N 51°58' E 004°03'2 3.2
2018-Feb-09 23:30N 51°58' E 004°01'1 2.1
2018-Feb-09 23:00N 51°57' E 004°00'0 0.0
2018-Feb-09 22:46N 51°57' E 004°00'1 1.1
2018-Feb-09 22:00N 51°58' E 003°60'2 0.8
2018-Feb-09 20:00N 51°58' E 004°02'0 0.2
2018-Feb-09 19:30N 51°58' E 004°03'0 0.0
2018-Feb-09 17:30N 51°58' E 004°03'0 0.0
2018-Feb-09 17:00N 51°58' E 004°03'  
Track history (hours):
 
Tides and Currents Weather Stations Pressure Air Temp Water Temp Dewpoint Dewpoint Depression Visibility Wind Speed Wind Dir Waves Ship Positions

Alsace

Last reported at 2018-Feb-19 02:30 UTC. Time now 2018-Feb-19 02:31 UTC.
Position N 51°49' E 004°45'.

Length 178 m; draft 2 m.

Type: Ship. MMSI: 244660556.

Date/timePositionNaut miles runAvg speedWind from/ knotsBaromVisibWave heightAir tempDewpointWater temp
2018-Feb-19 02:30N 51°49' E 004°45'4 8.8
2018-Feb-19 02:00N 51°49' E 004°53'13 9.2
2018-Feb-19 00:39N 51°49' E 005°13'110.0
2018-Feb-19 00:30N 51°49' E 005°15'4 8.7
2018-Feb-18 23:59N 51°49' E 005°22'11 9.0
2018-Feb-18 22:46N 51°54' E 005°38'15 8.5
2018-Feb-18 21:00N 51°52' E 006°02'21 9.3
2018-Feb-18 18:44N 51°40' E 006°29'310.6
2018-Feb-18 18:30N 51°39' E 006°33'4 7.5
2018-Feb-18 18:00N 51°36' E 006°36'4 7.5
2018-Feb-18 17:30N 51°34' E 006°41'5 9.2
2018-Feb-18 17:00N 51°30' E 006°43'3 6.6
2018-Feb-18 16:30N 51°27' E 006°43'12 7.7
2018-Feb-18 15:00N 51°15' E 006°44'3 5.5
2018-Feb-18 14:30N 51°13' E 006°44'17 7.8
2018-Feb-18 12:18N 50°59' E 006°60'3 9.6
2018-Feb-18 11:57N 50°55' E 006°58'4 9.1
2018-Feb-18 11:30N 50°53' E 007°03'92 7.3
2018-Feb-17 22:58N 49°37' E 008°24'4 9.2
2018-Feb-17 22:30N 49°33' E 008°25'5 9.7
2018-Feb-17 22:00N 49°28' E 008°28'3 5.8
2018-Feb-17 21:30N 49°26' E 008°30'113 4.7
2018-Feb-16 21:17N 47°40' E 007°31'1 1.3
2018-Feb-16 20:53N 47°39' E 007°32'0 0.6
2018-Feb-16 20:30N 47°39' E 007°32'3 6.3
2018-Feb-16 20:00N 47°37' E 007°35'2 0.9
2018-Feb-16 18:18N 47°35' E 007°35'2 2.7
2018-Feb-16 17:38N 47°33' E 007°37'1 4.9
2018-Feb-16 17:27N 47°34' E 007°38'0 0.3
2018-Feb-16 17:00N 47°34' E 007°38'0 0.0
2018-Feb-16 16:30N 47°34' E 007°38'1 1.3
2018-Feb-16 16:00N 47°33' E 007°39'0 0.0
2018-Feb-16 15:30N 47°33' E 007°39'0 0.0
2018-Feb-16 15:00N 47°33' E 007°39'0 0.0
2018-Feb-16 14:30N 47°33' E 007°39'0 0.0
2018-Feb-16 14:00N 47°33' E 007°39'0 0.0
2018-Feb-16 13:30N 47°33' E 007°39'0 0.8
2018-Feb-16 13:00N 47°33' E 007°39'1 1.1
2018-Feb-16 12:30N 47°32' E 007°40'0 0.0
2018-Feb-16 12:00N 47°32' E 007°40'0 0.0
2018-Feb-16 11:30N 47°32' E 007°40'0 0.0
2018-Feb-16 11:00N 47°32' E 007°40'0 0.0
2018-Feb-16 10:30N 47°32' E 007°40'0 0.0
2018-Feb-16 09:59N 47°32' E 007°40'0 0.0
2018-Feb-16 09:31N 47°32' E 007°40'2 3.3
2018-Feb-16 08:59N 47°34' E 007°38'1 1.5
2018-Feb-16 08:30N 47°33' E 007°37'2 2.1
2018-Feb-16 07:31N 47°35' E 007°35'0 0.7
2018-Feb-16 07:04N 47°35' E 007°35'0 0.0
2018-Feb-16 07:00N 47°35' E 007°35'0 0.0
2018-Feb-16 06:30N 47°35' E 007°35'0 0.0
2018-Feb-16 05:59N 47°35' E 007°35'0 0.0
2018-Feb-16 05:27N 47°35' E 007°35'0 0.0
2018-Feb-16 05:00N 47°35' E 007°35'0 0.0
2018-Feb-16 04:30N 47°35' E 007°35'0 0.0
2018-Feb-16 04:00N 47°35' E 007°35'0 0.0
2018-Feb-16 03:30N 47°35' E 007°35'0 0.0
2018-Feb-16 03:00N 47°35' E 007°35'0 0.9
2018-Feb-16 02:30N 47°35' E 007°35'1 2.0
2018-Feb-16 02:00N 47°36' E 007°35'107 2.4
2018-Feb-14 05:10N 49°18' E 008°29'1 4.4
2018-Feb-14 04:54N 49°19' E 008°28'4 4.2
2018-Feb-14 04:02N 49°22' E 008°30'0 5.4
2018-Feb-14 03:59N 49°22' E 008°30'3 5.6
2018-Feb-14 03:30N 49°25' E 008°30'2 3.9
2018-Feb-14 03:00N 49°27' E 008°28'2 3.2
2018-Feb-14 02:31N 49°28' E 008°28'2 3.2
2018-Feb-14 02:00N 49°29' E 008°27'0 0.0
2018-Feb-14 01:30N 49°29' E 008°27'0 0.0
2018-Feb-14 01:01N 49°29' E 008°27'0 0.0
2018-Feb-14 00:30N 49°29' E 008°27'0 0.0
2018-Feb-14 00:00N 49°29' E 008°27'0 0.0
2018-Feb-13 23:30N 49°29' E 008°27'0 0.0
2018-Feb-13 23:00N 49°29' E 008°27'0 0.0
2018-Feb-13 22:31N 49°29' E 008°27'0 0.0
2018-Feb-13 22:01N 49°29' E 008°27'0 0.0
2018-Feb-13 21:31N 49°29' E 008°27'0 0.0
2018-Feb-13 21:01N 49°29' E 008°27'0 0.0
2018-Feb-13 20:30N 49°29' E 008°27'0 0.0
2018-Feb-13 20:00N 49°29' E 008°27'0 0.0
2018-Feb-13 19:30N 49°29' E 008°27'0 0.0
2018-Feb-13 19:01N 49°29' E 008°27'0 0.0
2018-Feb-13 18:30N 49°29' E 008°27'0 0.0
2018-Feb-13 18:00N 49°29' E 008°27'0 0.0
2018-Feb-13 17:30N 49°29' E 008°27'0 0.0
2018-Feb-13 17:01N 49°29' E 008°27'0 0.0
2018-Feb-13 16:31N 49°29' E 008°27'0 0.0
2018-Feb-13 16:00N 49°29' E 008°27'0 0.0
2018-Feb-13 15:30N 49°29' E 008°27'0 0.0
2018-Feb-13 15:00N 49°29' E 008°27'0 0.0
2018-Feb-13 14:31N 49°29' E 008°27'0 0.0
2018-Feb-13 14:00N 49°29' E 008°27'0 0.0
2018-Feb-13 13:30N 49°29' E 008°27'0 0.0
2018-Feb-13 13:00N 49°29' E 008°27'0 0.0
2018-Feb-13 12:30N 49°29' E 008°27'0 0.0
2018-Feb-13 12:00N 49°29' E 008°27'0 0.0
2018-Feb-13 11:30N 49°29' E 008°27'0 0.0
2018-Feb-13 11:00N 49°29' E 008°27'0 0.0
2018-Feb-13 10:30N 49°29' E 008°27'0 0.0
2018-Feb-13 10:00N 49°29' E 008°27'1 1.1
2018-Feb-13 09:30N 49°30' E 008°26'3 6.0
2018-Feb-13 09:00N 49°33' E 008°25'83 3.9
2018-Feb-12 11:55N 50°41' E 007°11'3 5.0
2018-Feb-12 11:19N 50°43' E 007°08'2 5.0
2018-Feb-12 11:00N 50°44' E 007°07'6 4.8
2018-Feb-12 09:48N 50°49' E 007°01'2 5.0
2018-Feb-12 09:27N 50°50' E 006°59'4 4.5
2018-Feb-12 08:36N 50°53' E 007°03'1 3.7
2018-Feb-12 08:17N 50°54' E 007°02'2 4.9
2018-Feb-12 07:56N 50°54' E 006°59'2 5.3
2018-Feb-12 07:30N 50°56' E 006°58'14 3.6
2018-Feb-12 03:33N 51°09' E 006°48'1 4.8
2018-Feb-12 03:14N 51°10' E 006°48'1 4.7
2018-Feb-12 03:00N 51°11' E 006°47'2 3.8
2018-Feb-12 02:30N 51°12' E 006°44'2 3.2
2018-Feb-12 02:00N 51°14' E 006°45'8 3.2
2018-Feb-11 23:39N 51°21' E 006°40'1 4.6
2018-Feb-11 23:30N 51°21' E 006°39'2 3.9
2018-Feb-11 23:00N 51°22' E 006°42'2 4.8
2018-Feb-11 22:30N 51°24' E 006°45'2 5.0
2018-Feb-11 22:00N 51°26' E 006°43'2 4.0
2018-Feb-11 21:30N 51°28' E 006°42'1 2.9
2018-Feb-11 21:01N 51°30' E 006°42'2 3.3
2018-Feb-11 20:31N 51°31' E 006°42'2 4.0
2018-Feb-11 20:00N 51°33' E 006°41'2 3.2
2018-Feb-11 19:19N 51°34' E 006°38'2 3.9
2018-Feb-11 18:51N 51°35' E 006°36'2 5.6
2018-Feb-11 18:30N 51°37' E 006°35'2 4.2
2018-Feb-11 18:00N 51°39' E 006°35'3 5.3
2018-Feb-11 17:29N 51°40' E 006°31'17 4.9
2018-Feb-11 14:04N 51°50' E 006°10'0 6.1
2018-Feb-11 14:00N 51°51' E 006°09'3 5.8
2018-Feb-11 13:30N 51°51' E 006°05'26 5.2
2018-Feb-11 08:28N 51°49' E 005°22'4 5.4
2018-Feb-11 07:48N 51°49' E 005°17'2 6.3
2018-Feb-11 07:30N 51°49' E 005°14'3 6.3
2018-Feb-11 07:00N 51°49' E 005°08'3 6.2
2018-Feb-11 06:30N 51°49' E 005°04'3 6.7
2018-Feb-11 06:00N 51°49' E 004°58'4 7.0
2018-Feb-11 05:30N 51°49' E 004°52'4 7.3
2018-Feb-11 05:00N 51°49' E 004°47'4 7.5
2018-Feb-11 04:31N 51°49' E 004°41'3 5.9
2018-Feb-11 04:00N 51°48' E 004°36'4 7.2
2018-Feb-11 03:30N 51°50' E 004°31'4 8.0
2018-Feb-11 03:00N 51°51' E 004°24'4 7.9
2018-Feb-11 02:30N 51°52' E 004°18'4 7.3
2018-Feb-11 02:00N 51°54' E 004°13'4 7.9
2018-Feb-11 01:30N 51°56' E 004°08'2 4.6
2018-Feb-11 01:00N 51°57' E 004°05'0 0.0
2018-Feb-11 00:30N 51°57' E 004°05'1 1.5
2018-Feb-11 00:00N 51°58' E 004°04'0 0.0
2018-Feb-10 23:30N 51°58' E 004°04'1 2.7
2018-Feb-10 23:00N 51°57' E 004°03'0 0.0
2018-Feb-10 22:30N 51°57' E 004°03'0 0.0
2018-Feb-10 22:00N 51°57' E 004°03'0 0.0
2018-Feb-10 21:30N 51°57' E 004°03'0 0.0
2018-Feb-10 21:00N 51°57' E 004°03'0 0.0
2018-Feb-10 20:30N 51°57' E 004°03'0 0.0
2018-Feb-10 20:00N 51°57' E 004°03'0 0.0
2018-Feb-10 19:28N 51°57' E 004°03'0 0.0
2018-Feb-10 19:00N 51°57' E 004°03'0 0.0
2018-Feb-10 18:29N 51°57' E 004°03'0 0.0
2018-Feb-10 18:00N 51°57' E 004°03'0 0.0
2018-Feb-10 17:30N 51°57' E 004°03'0 0.0
2018-Feb-10 17:00N 51°57' E 004°03'0 0.0
2018-Feb-10 16:30N 51°57' E 004°03'0 0.0
2018-Feb-10 16:00N 51°57' E 004°03'0 0.5
2018-Feb-10 15:30N 51°57' E 004°03'1 2.0
2018-Feb-10 15:00N 51°57' E 004°05'0 0.0
2018-Feb-10 14:30N 51°57' E 004°05'0 0.0
2018-Feb-10 14:00N 51°57' E 004°05'0 0.0
2018-Feb-10 13:30N 51°57' E 004°05'0 0.1
2018-Feb-10 13:00N 51°57' E 004°05'1 1.9
2018-Feb-10 12:30N 51°57' E 004°03'0 0.4
2018-Feb-10 12:00N 51°57' E 004°03'0 0.0
2018-Feb-10 11:30N 51°57' E 004°03'0 0.0
2018-Feb-10 11:00N 51°57' E 004°03'0 0.0
2018-Feb-10 10:30N 51°57' E 004°03'0 0.0
2018-Feb-10 10:00N 51°57' E 004°03'1 2.7
2018-Feb-10 09:30N 51°58' E 004°04'1 1.1
2018-Feb-10 09:00N 51°58' E 004°03'0 0.0
2018-Feb-10 08:30N 51°58' E 004°03'0 0.0
2018-Feb-10 08:00N 51°58' E 004°03'0 0.0
2018-Feb-10 07:30N 51°58' E 004°03'0 0.0
2018-Feb-10 07:00N 51°58' E 004°03'0 0.0
2018-Feb-10 06:30N 51°58' E 004°03'0 0.0
2018-Feb-10 06:00N 51°58' E 004°03'0 0.0
2018-Feb-10 05:30N 51°58' E 004°03'0 0.0
2018-Feb-10 05:00N 51°58' E 004°03'0 0.0
2018-Feb-10 04:30N 51°58' E 004°03'0 0.0
2018-Feb-10 04:00N 51°58' E 004°03'0 0.0
2018-Feb-10 03:30N 51°58' E 004°03'0 0.0
2018-Feb-10 03:00N 51°58' E 004°03'0 0.0
2018-Feb-10 02:30N 51°58' E 004°03'0 0.0
2018-Feb-10 02:00N 51°58' E 004°03'0 0.0
2018-Feb-10 01:30N 51°58' E 004°03'0 0.0
2018-Feb-10 01:00N 51°58' E 004°03'0 0.0
2018-Feb-10 00:30N 51°58' E 004°03'0 0.0
2018-Feb-09 23:59N 51°58' E 004°03'2 3.2
2018-Feb-09 23:30N 51°58' E 004°01'1 2.1
2018-Feb-09 23:00N 51°57' E 004°00'0 0.0
2018-Feb-09 22:46N 51°57' E 004°00'1 1.1
2018-Feb-09 22:00N 51°58' E 003°60'2 0.8
2018-Feb-09 20:00N 51°58' E 004°02'0 0.2
2018-Feb-09 19:30N 51°58' E 004°03'0 0.0
2018-Feb-09 17:30N 51°58' E 004°03'0 0.0
2018-Feb-09 17:00N 51°58' E 004°03'  

Dump ship's entire track history